Stations météo

réclame
Mon MeteoGroup
S. Valentino Alla Muta, Italie (16008): Température de l'air & dewpoint: 19.09.2018 11:00:00 - 25.09.2018 11:00:00 (CEST)S. Valentino Alla Muta, Italie (16008): Vitesse du vent: 19.09.2018 11:00:00 - 25.09.2018 11:00:00 (CEST)S. Valentino Alla Muta, Italie (16008): Direction du vent: 19.09.2018 11:00:00 - 25.09.2018 11:00:00 (CEST)S. Valentino Alla Muta, Italie (16008): visibility: 19.09.2018 11:00:00 - 25.09.2018 11:00:00 (CEST)
Date & Time tt [°C] td [°C] ff [km/h] ff [knt] dd vv [km]
25.09.2018 11:00:00 6,2 -1,2 21 11 NE 20
25.09.2018 10:00:00 4,2 -1,4 18 10 NNE 20
25.09.2018 09:00:00 2,2 -1,1 9 5 NE 10
25.09.2018 08:00:00 2,2 -0,1 11 6 NNE 10
25.09.2018 07:00:00 2,2 -0,4 9 5 NNE 10
25.09.2018 06:00:00 - - - - - -
25.09.2018 05:00:00 3,2 0,1 15 8 NE 10
25.09.2018 04:00:00 3,2 -0,1 13 7 NE 10
25.09.2018 03:00:00 3,4 -0,8 9 5 NNE 10
25.09.2018 02:00:00 3,2 -1,2 9 5 NNE 10
25.09.2018 01:00:00 4,0 -1,6 9 5 NNE 10
25.09.2018 00:00:00 4,2 -1,6 9 5 NNE 10
24.09.2018 23:00:00 5,2 -2,4 9 5 NNE 10
24.09.2018 22:00:00 6,0 -1,6 11 6 NNE 10
24.09.2018 21:00:00 6,2 -2,9 9 5 N 10
24.09.2018 20:00:00 7,2 -2,5 8 4 NNE 10
24.09.2018 19:00:00 8,0 -4,8 5 3 NNE 10
24.09.2018 18:00:00 9,2 -6,2 11 6 N 20
24.09.2018 17:00:00 10,0 -6,3 11 6 N 10
24.09.2018 16:00:00 12,8 -6,2 15 8 N 10
24.09.2018 15:00:00 12,8 -6,2 16 9 N 20
24.09.2018 14:00:00 12,8 -4,3 21 11 N 20
24.09.2018 13:00:00 12,0 -4,6 18 10 N 20
24.09.2018 12:00:00 11,8 -2,0 18 10 N 20
24.09.2018 11:00:00 8,6 0,1 16 9 N 10
24.09.2018 10:00:00 8,0 0,7 18 10 N 10
24.09.2018 09:00:00 7,2 3,1 16 9 N 14
24.09.2018 08:00:00 7,8 3,7 16 9 N 16
24.09.2018 07:00:00 7,8 3,8 9 5 NNE 12
24.09.2018 06:00:00 8,0 4,4 9 5 NNE 12
24.09.2018 05:00:00 8,4 6,0 11 6 NNE 12
24.09.2018 04:00:00 8,8 6,1 13 7 NNE 12
24.09.2018 03:00:00 10,4 6,4 11 6 N 12
24.09.2018 02:00:00 11,2 5,9 15 8 N 12
24.09.2018 01:00:00 13,8 13,8 8 4 NNE 12
24.09.2018 00:00:00 14,4 14,4 0 0 N 12
23.09.2018 23:00:00 14,8 14,8 0 0 N 12
23.09.2018 22:00:00 14,8 14,8 0 0 N 12
23.09.2018 21:00:00 15,6 15,6 0 0 N 12
23.09.2018 20:00:00 16,6 14,3 0 0 N 12
23.09.2018 19:00:00 17,0 14,1 9 5 S 12
23.09.2018 18:00:00 17,8 14,3 13 7 S 14
23.09.2018 17:00:00 18,4 13,7 16 9 SSW 16
23.09.2018 16:00:00 19,0 14,1 15 8 SSW 14
23.09.2018 15:00:00 18,8 14,1 11 6 SSW 14
23.09.2018 14:00:00 17,8 13,3 11 6 SSW 16
23.09.2018 13:00:00 17,2 13,3 8 4 SSW 16
23.09.2018 12:00:00 17,4 13,1 9 5 S 16
23.09.2018 11:00:00 17,0 12,7 11 6 SSW 20
23.09.2018 10:00:00 14,0 12,7 5 3 SSW 20
23.09.2018 09:00:00 13,4 13,4 5 3 N 15
23.09.2018 08:00:00 13,4 13,4 9 5 N 15
23.09.2018 07:00:00 13,0 13,0 9 5 NNE 12
23.09.2018 06:00:00 13,0 13,0 9 5 NNE 10
23.09.2018 05:00:00 13,0 13,0 11 6 NNE 10
23.09.2018 04:00:00 - - - - - -
23.09.2018 03:00:00 - - - - - -
23.09.2018 02:00:00 13,2 10,9 9 5 NNE 10
23.09.2018 01:00:00 13,0 10,5 9 5 NNE 10
23.09.2018 00:00:00 12,8 10,5 9 5 N 12
22.09.2018 23:00:00 12,8 10,2 9 5 N 12
22.09.2018 22:00:00 13,2 8,7 11 6 NNE 12
22.09.2018 21:00:00 13,0 8,7 11 6 N 12
22.09.2018 20:00:00 13,6 7,8 13 7 N 12
22.09.2018 19:00:00 15,4 8,2 5 3 N 15
22.09.2018 18:00:00 15,8 7,3 11 6 N 15
22.09.2018 17:00:00 17,0 5,9 9 5 N 15
22.09.2018 16:00:00 17,2 4,2 11 6 NNE 20
22.09.2018 15:00:00 17,0 6,5 15 8 NNE 15
22.09.2018 14:00:00 16,0 7,0 13 7 NNE 15
22.09.2018 13:00:00 14,6 7,7 13 7 NNE 15
22.09.2018 12:00:00 13,0 8,1 15 8 NE 20
22.09.2018 11:00:00 11,4 8,4 16 9 NNE 20
22.09.2018 10:00:00 10,2 7,8 21 11 NNE 20
22.09.2018 09:00:00 9,8 8,7 18 10 NE 20
22.09.2018 08:00:00 10,0 9,4 16 9 NE 16
22.09.2018 07:00:00 11,4 10,8 15 8 NNE 15
22.09.2018 06:00:00 11,8 11,4 11 6 NE 10
22.09.2018 05:00:00 13,0 12,4 15 8 NE 10
22.09.2018 04:00:00 13,2 12,6 11 6 NE 10
22.09.2018 03:00:00 14,6 14,0 9 5 NNE 10
22.09.2018 02:00:00 14,6 14,0 4 2 NNE 10
22.09.2018 01:00:00 14,8 14,0 4 2 SSE 10
22.09.2018 00:00:00 15,2 14,1 9 5 SSW 10
21.09.2018 23:00:00 15,4 13,8 13 7 SSE 10
21.09.2018 22:00:00 15,6 13,6 11 6 S 10
21.09.2018 21:00:00 16,4 13,9 11 6 S 10
21.09.2018 20:00:00 17,0 13,0 11 6 S 10
21.09.2018 19:00:00 17,0 12,1 15 8 SSE 12
21.09.2018 18:00:00 17,4 11,9 16 9 S 12
21.09.2018 17:00:00 18,6 11,7 18 10 S 12
21.09.2018 16:00:00 19,6 10,3 16 9 S 12
21.09.2018 15:00:00 19,0 9,8 21 11 S 12
21.09.2018 14:00:00 19,0 10,0 21 11 S 12
21.09.2018 13:00:00 19,0 10,5 16 9 S 12
21.09.2018 12:00:00 18,4 11,0 16 9 SSW 12
21.09.2018 11:00:00 14,6 11,6 4 2 WSW 12
21.09.2018 10:00:00 12,8 10,5 8 4 NNE 12
21.09.2018 09:00:00 10,4 9,3 8 4 NNE 15
21.09.2018 08:00:00 10,2 9,9 8 4 NNE 20
21.09.2018 07:00:00 10,0 9,7 4 2 NNE 20
21.09.2018 06:00:00 10,0 9,9 4 2 NE 10
21.09.2018 05:00:00 10,0 9,9 0 0 N 10
21.09.2018 04:00:00 10,4 10,0 0 0 N 10
21.09.2018 03:00:00 - - - - - -
21.09.2018 02:00:00 11,0 8,9 0 0 N 10
21.09.2018 01:00:00 11,4 8,8 0 0 N 10
21.09.2018 00:00:00 12,6 9,6 0 0 N 10
20.09.2018 23:00:00 13,0 9,2 0 0 N 12
20.09.2018 22:00:00 13,4 8,7 0 0 N 12
20.09.2018 21:00:00 14,8 8,5 5 3 NNE 12
20.09.2018 20:00:00 16,6 8,3 4 2 ESE 20
20.09.2018 19:00:00 18,4 7,8 5 3 SSW 20
20.09.2018 18:00:00 19,4 6,2 9 5 WSW 20
20.09.2018 17:00:00 20,8 2,1 8 4 SW 30
20.09.2018 16:00:00 21,6 -1,6 13 7 S 30
20.09.2018 15:00:00 23,6 -2,9 5 3 SW 30
20.09.2018 14:00:00 22,6 -2,9 5 3 N 30
20.09.2018 13:00:00 21,6 2,8 11 6 NNE 30
20.09.2018 12:00:00 19,0 5,1 9 5 N 30
20.09.2018 11:00:00 14,6 9,4 9 5 N 30
20.09.2018 10:00:00 12,0 8,7 9 5 NNW 15
20.09.2018 09:00:00 10,6 9,0 4 2 NE 15
20.09.2018 08:00:00 10,6 9,0 11 6 N 15
20.09.2018 07:00:00 10,8 9,5 8 4 N 12
20.09.2018 06:00:00 10,8 9,5 9 5 N 10
20.09.2018 05:00:00 11,4 9,8 9 5 NNE 10
20.09.2018 04:00:00 11,8 9,9 8 4 N 10
20.09.2018 03:00:00 12,4 10,0 4 2 NNE 12
20.09.2018 02:00:00 13,0 10,0 4 2 NNE 15
20.09.2018 01:00:00 13,0 9,6 4 2 NNW 15
20.09.2018 00:00:00 13,6 9,7 9 5 NNE 15
19.09.2018 23:00:00 14,2 9,4 9 5 NNE 15
19.09.2018 22:00:00 15,0 9,4 13 7 NNE 15
19.09.2018 21:00:00 16,4 8,1 11 6 NNE 15
19.09.2018 20:00:00 18,4 5,3 9 5 NNE 15
19.09.2018 19:00:00 19,4 4,7 5 3 NNE 15
19.09.2018 18:00:00 21,2 3,0 9 5 N 18
19.09.2018 17:00:00 22,0 2,2 15 8 N 20
19.09.2018 16:00:00 22,6 1,6 13 7 N 15
19.09.2018 15:00:00 22,6 1,6 13 7 NNE 15
19.09.2018 14:00:00 22,0 3,7 18 10 NNE 15
19.09.2018 13:00:00 20,0 4,1 13 7 N 15
19.09.2018 12:00:00 18,0 7,4 9 5 NE 15
19.09.2018 11:00:00 13,8 9,5 15 8 N 15

tt = Température de l'air
td = dewpoint
ff = Vitesse du vent
dd = Direction du vent
vv = visibility

stations d'obs. à proximité